Time;durP1;ratioP1;P1;durP2;ratioP2;P2;SDS_P1;SDS_P2;PMS_P1;PMS_P2;Temp;Humidity;BMP_temperature;BMP_pressure;BME280_temperature;BME280_humidity;BME280_pressure;Samples;Min_cycle;Max_cycle;Signal;HPM_P1;HPM_P2
2021/11/03 00:00:13;;;;;;;8.52;5.70;;;;;;;8.63;61.98;100044.53;5036102;27;123737;-71
2021/11/03 00:02:42;;;;;;;7.88;4.65;;;;;;;8.57;61.56;100044.84;5040844;27;116022;-72
2021/11/03 00:05:13;;;;;;;11.63;5.95;;;;;;;8.52;61.46;100041.59;5036870;27;115015;-72
2021/11/03 00:07:41;;;;;;;10.40;5.75;;;;;;;8.46;61.93;100036.63;5041693;27;124249;-71
2021/11/03 00:10:13;;;;;;;9.38;5.75;;;;;;;8.43;61.99;100031.47;5039260;27;124618;-72
2021/11/03 00:12:40;;;;;;;9.93;5.40;;;;;;;8.40;61.77;100032.47;5044204;27;113745;-72
2021/11/03 00:15:08;;;;;;;10.63;5.68;;;;;;;8.36;61.82;100031.75;5043662;27;113754;-71
2021/11/03 00:17:37;;;;;;;9.98;5.20;;;;;;;8.34;61.61;100033.63;5040661;27;123154;-72
2021/11/03 00:20:08;;;;;;;9.45;5.60;;;;;;;8.30;62.00;100026.75;5043824;27;123725;-72
2021/11/03 00:22:35;;;;;;;10.13;5.75;;;;;;;8.27;61.94;100034.84;5038773;27;114749;-71
2021/11/03 00:25:05;;;;;;;10.73;6.05;;;;;;;8.25;61.81;100034.06;5044460;27;114088;-71
2021/11/03 00:27:32;;;;;;;9.75;6.15;;;;;;;8.23;62.03;100041.19;5041390;27;123756;-71
2021/11/03 00:30:00;;;;;;;11.27;5.82;;;;;;;8.21;61.52;100037.75;5049514;27;123418;-71
2021/11/03 00:32:27;;;;;;;9.88;6.25;;;;;;;8.19;61.75;100044.88;5042274;27;114558;-71
2021/11/03 00:34:54;;;;;;;9.73;5.15;;;;;;;8.16;61.59;100045.06;5041027;27;114331;-71
2021/11/03 00:37:21;;;;;;;9.45;5.75;;;;;;;8.13;61.67;100039.91;5037972;27;124714;-71
2021/11/03 00:39:48;;;;;;;9.73;5.68;;;;;;;8.10;62.05;100040.06;5037196;27;124445;-71
2021/11/03 00:42:15;;;;;;;8.18;5.28;;;;;;;8.06;61.92;100038.50;5042922;27;113988;-72
2021/11/03 00:44:43;;;;;;;8.35;5.13;;;;;;;8.05;62.04;100031.53;5040127;27;113154;-71
2021/11/03 00:47:10;;;;;;;7.50;4.80;;;;;;;8.02;61.83;100036.94;5042405;27;124472;-71
2021/11/03 00:49:38;;;;;;;7.43;4.45;;;;;;;7.97;61.48;100035.38;5040234;27;123116;-72
2021/11/03 00:52:07;;;;;;;7.20;4.40;;;;;;;7.94;61.81;100046.06;5035275;27;114321;-69
2021/11/03 00:54:35;;;;;;;11.07;5.15;;;;;;;7.90;61.87;100036.59;5042864;27;114153;-69
2021/11/03 00:57:02;;;;;;;10.85;5.70;;;;;;;7.86;61.54;100037.66;5033614;27;123331;-69
2021/11/03 00:59:29;;;;;;;10.27;5.50;;;;;;;7.80;61.45;100043.22;5039642;27;122939;-70
2021/11/03 01:01:57;;;;;;;8.52;5.15;;;;;;;7.75;61.99;100045.22;5043000;27;114587;-69
2021/11/03 01:04:25;;;;;;;13.50;5.63;;;;;;;7.73;61.74;100036.53;5039670;27;114826;-69
2021/11/03 01:06:52;;;;;;;8.93;4.90;;;;;;;7.70;61.56;100034.88;5035834;27;124780;-70
2021/11/03 01:09:19;;;;;;;8.30;3.67;;;;;;;7.66;61.53;100040.38;5039258;27;123882;-70
2021/11/03 01:11:51;;;;;;;9.55;4.00;;;;;;;7.60;61.64;100034.44;5039981;27;112768;-70
2021/11/03 01:14:20;;;;;;;8.25;3.70;;;;;;;7.54;61.67;100032.09;5043069;27;114420;-70
2021/11/03 01:16:48;;;;;;;8.68;3.72;;;;;;;7.48;62.07;100048.19;5029511;27;122904;-70
2021/11/03 01:19:15;;;;;;;6.13;3.90;;;;;;;7.44;61.74;100036.09;5035502;27;123961;-70
2021/11/03 01:21:42;;;;;;;6.15;3.85;;;;;;;7.43;61.90;100033.50;5047425;27;115035;-70
2021/11/03 01:24:10;;;;;;;5.95;4.15;;;;;;;7.43;62.04;100037.00;5039929;27;114332;-70
2021/11/03 01:26:38;;;;;;;7.35;4.03;;;;;;;7.43;62.30;100029.09;5055070;27;123214;-71
2021/11/03 01:29:06;;;;;;;9.82;4.07;;;;;;;7.43;62.22;100029.09;5043433;27;122913;-70
2021/11/03 01:31:34;;;;;;;6.55;3.65;;;;;;;7.44;62.21;100029.94;5039929;27;114424;-70
2021/11/03 01:34:04;;;;;;;7.00;4.07;;;;;;;7.42;61.84;100022.09;5041680;27;114299;-70
2021/11/03 01:36:31;;;;;;;13.88;4.35;;;;;;;7.43;62.20;100028.25;5042449;27;123171;-70
2021/11/03 01:38:59;;;;;;;8.10;3.97;;;;;;;7.42;62.14;100022.09;5030454;27;123072;-70
2021/11/03 01:41:26;;;;;;;8.55;4.20;;;;;;;7.42;62.16;100016.81;5042237;27;115962;-70
2021/11/03 01:44:05;;;;;;;6.35;4.47;;;;;;;7.41;62.15;100015.13;5061768;27;113992;-70
2021/11/03 01:46:43;;;;;;;7.82;4.63;;;;;;;7.41;62.23;100017.78;5047661;27;123371;-71
2021/11/03 01:49:16;;;;;;;6.97;3.95;;;;;;;7.40;62.20;100016.03;5042332;27;126707;-70
2021/11/03 01:51:50;;;;;;;10.43;4.50;;;;;;;7.40;62.13;100018.69;5045818;27;113345;-70
2021/11/03 01:54:24;;;;;;;9.05;4.30;;;;;;;7.39;61.86;100017.00;5045472;27;113222;-70
2021/11/03 01:56:52;;;;;;;8.98;3.95;;;;;;;7.38;62.23;100016.13;5043150;27;124183;-70
2021/11/03 01:59:29;;;;;;;10.43;4.25;;;;;;;7.37;61.87;100018.84;5039283;27;123614;-71
2021/11/03 02:01:58;;;;;;;8.65;4.20;;;;;;;7.36;62.18;100023.22;5036624;27;113814;-70
2021/11/03 02:04:26;;;;;;;6.32;4.05;;;;;;;7.36;62.14;100017.13;5045341;27;113977;-70
2021/11/03 02:06:55;;;;;;;8.07;4.53;;;;;;;7.36;62.33;100022.38;5040723;27;124123;-70
2021/11/03 02:09:22;;;;;;;10.80;4.70;;;;;;;7.36;61.85;100011.84;5039555;27;124052;-70
2021/11/03 02:11:50;;;;;;;7.00;4.20;;;;;;;7.36;62.38;100011.84;5043627;27;113458;-70
2021/11/03 02:14:17;;;;;;;6.63;4.07;;;;;;;7.35;62.38;99999.63;5045356;27;113141;-71
2021/11/03 02:16:48;;;;;;;6.30;4.57;;;;;;;7.34;62.11;100011.06;5032316;27;124223;-71
2021/11/03 02:19:24;;;;;;;7.38;4.40;;;;;;;7.35;62.16;100011.00;5039423;27;123542;-70
2021/11/03 02:22:12;;;;;;;7.72;4.38;;;;;;;7.35;62.07;100004.88;5039045;27;113106;-70
2021/11/03 02:24:48;;;;;;;8.15;4.47;;;;;;;7.35;62.38;99996.97;5050797;27;112890;-70
2021/11/03 02:27:15;;;;;;;13.85;4.47;;;;;;;7.34;62.09;100011.06;5046484;27;123296;-70
2021/11/03 02:29:43;;;;;;;5.97;4.35;;;;;;;7.34;62.12;100009.28;5036384;27;124699;-71
2021/11/03 02:32:19;;;;;;;6.90;4.38;;;;;;;7.34;62.40;100008.44;5040551;27;115604;-71
2021/11/03 02:34:46;;;;;;;5.93;4.30;;;;;;;7.34;62.20;100003.16;5042119;27;114035;-70
2021/11/03 02:37:29;;;;;;;12.30;3.92;;;;;;;7.33;62.02;100007.59;5039004;27;123217;-71
2021/11/03 02:40:27;;;;;;;8.05;3.95;;;;;;;7.29;61.93;100007.78;5042557;27;122898;-71
2021/11/03 02:43:21;;;;;;;6.23;4.10;;;;;;;7.25;62.17;100003.56;5036611;27;113364;-70
2021/11/03 02:45:59;;;;;;;7.97;4.50;;;;;;;7.24;62.40;99999.25;5034734;27;114681;-70
2021/11/03 02:48:30;;;;;;;16.50;4.32;;;;;;;7.24;62.30;100001.88;5044617;27;124063;-70
2021/11/03 02:51:18;;;;;;;7.00;4.57;;;;;;;7.23;62.28;100001.00;5037166;27;122922;-71
2021/11/03 02:53:54;;;;;;;15.15;4.15;;;;;;;7.22;62.03;100000.16;5044927;27;113307;-71
2021/11/03 02:56:25;;;;;;;19.77;4.75;;;;;;;7.22;62.18;99994.88;5031869;27;113223;-71
2021/11/03 02:58:52;;;;;;;12.13;4.57;;;;;;;7.21;62.37;99987.94;5043625;27;124126;-71
2021/11/03 03:01:21;;;;;;;19.40;4.78;;;;;;;7.22;62.34;99984.34;5039341;27;122943;-71
2021/11/03 03:03:49;;;;;;;11.52;4.65;;;;;;;7.21;62.33;99993.19;5050336;27;113439;-71
2021/11/03 03:06:23;;;;;;;7.13;4.43;;;;;;;7.19;62.15;100000.28;5045652;27;113055;-70
2021/11/03 03:08:52;;;;;;;14.57;4.45;;;;;;;7.19;62.35;99999.44;5048233;27;127088;-71
2021/11/03 03:11:21;;;;;;;9.30;4.50;;;;;;;7.14;62.13;99991.75;5057755;27;122776;-71
2021/11/03 03:13:49;;;;;;;9.98;4.60;;;;;;;7.10;62.35;99992.81;5049597;27;113167;-71
2021/11/03 03:16:18;;;;;;;8.25;4.43;;;;;;;7.07;62.39;99990.31;5037801;27;113768;-71
2021/11/03 03:18:46;;;;;;;11.73;4.47;;;;;;;7.03;62.28;99994.00;5025268;27;123078;-71
2021/11/03 03:21:15;;;;;;;9.98;4.03;;;;;;;6.98;62.29;99999.47;5035314;27;123037;-71
2021/11/03 03:23:46;;;;;;;9.30;4.65;;;;;;;6.92;62.04;100009.41;5047412;27;114257;-71
2021/11/03 03:26:15;;;;;;;7.75;4.35;;;;;;;6.90;62.13;100013.91;5043096;27;114054;-71
2021/11/03 03:28:45;;;;;;;13.13;4.63;;;;;;;6.90;62.27;100019.16;5040967;27;123206;-72
2021/11/03 03:31:14;;;;;;;11.43;4.75;;;;;;;6.91;62.26;100020.84;5042760;27;123610;-71
2021/11/03 03:33:45;;;;;;;9.43;4.47;;;;;;;6.92;62.35;100017.31;5062277;27;113444;-71
2021/11/03 03:36:15;;;;;;;8.98;4.25;;;;;;;6.91;62.48;100026.13;5034373;27;113286;-71
2021/11/03 03:38:43;;;;;;;7.55;4.13;;;;;;;6.91;62.23;100028.75;5046255;27;123275;-71
2021/11/03 03:41:12;;;;;;;6.70;3.85;;;;;;;6.88;62.36;100027.13;5047547;27;123118;-71
2021/11/03 03:43:41;;;;;;;8.35;4.10;;;;;;;6.87;62.45;100019.28;5061484;27;113362;-71
2021/11/03 03:46:10;;;;;;;6.28;4.18;;;;;;;6.88;62.28;100021.00;5045398;27;112952;-71
2021/11/03 03:48:39;;;;;;;6.68;4.30;;;;;;;6.89;62.42;100014.81;5059889;27;123238;-72
2021/11/03 03:51:07;;;;;;;10.00;4.68;;;;;;;6.89;62.19;100009.53;5035280;27;123101;-71
2021/11/03 03:53:35;;;;;;;6.90;3.90;;;;;;;6.87;62.51;100012.22;5038415;27;114559;-71
2021/11/03 03:56:15;;;;;;;7.28;4.43;;;;;;;6.85;62.08;100018.50;5051880;27;113216;-72
2021/11/03 03:58:43;;;;;;;5.68;3.92;;;;;;;6.82;62.17;100017.72;5048572;27;123296;-71
2021/11/03 04:01:14;;;;;;;6.65;4.38;;;;;;;6.82;62.43;100028.22;5042374;27;123064;-71
2021/11/03 04:03:43;;;;;;;6.70;4.13;;;;;;;6.80;62.14;100030.06;5042413;27;113372;-67
2021/11/03 04:06:13;;;;;;;8.27;4.38;;;;;;;6.78;62.12;100029.28;5046778;27;113679;-67
2021/11/03 04:08:40;;;;;;;11.10;4.50;;;;;;;6.75;62.34;100026.78;5046330;27;123125;-67
2021/11/03 04:11:09;;;;;;;10.93;4.53;;;;;;;6.72;62.26;100021.63;5039087;27;122911;-68
2021/11/03 04:13:38;;;;;;;8.98;4.75;;;;;;;6.72;62.64;100021.63;5037703;27;114542;-68
2021/11/03 04:16:07;;;;;;;7.05;4.80;;;;;;;6.72;62.37;100026.91;5047351;27;114771;-68
2021/11/03 04:18:35;;;;;;;10.38;5.53;;;;;;;6.74;62.67;100030.34;5043322;27;123273;-67
2021/11/03 04:21:04;;;;;;;7.25;4.97;;;;;;;6.77;62.44;100040.72;5047317;27;122968;-68
2021/11/03 04:23:32;;;;;;;9.73;4.85;;;;;;;6.77;62.41;100035.47;5048802;27;113455;-67
2021/11/03 04:26:00;;;;;;;7.28;4.60;;;;;;;6.80;62.51;100040.59;5036954;27;113049;-68
2021/11/03 04:28:30;;;;;;;11.20;4.55;;;;;;;6.81;62.38;100044.94;5047123;27;123280;-67
2021/11/03 04:30:58;;;;;;;9.00;4.93;;;;;;;6.81;62.24;100052.81;5045323;27;122210;-67
2021/11/03 04:33:25;;;;;;;8.35;4.72;;;;;;;6.78;62.31;100052.97;5040470;27;113722;-67
2021/11/03 04:35:52;;;;;;;7.95;4.32;;;;;;;6.76;62.51;100060.09;5040507;27;114143;-68
2021/11/03 04:38:20;;;;;;;10.40;5.35;;;;;;;6.76;62.22;100049.56;5052315;27;123229;-67
2021/11/03 04:40:47;;;;;;;9.38;4.90;;;;;;;6.75;62.71;100047.81;5040699;27;122828;-68
2021/11/03 04:43:14;;;;;;;14.05;5.22;;;;;;;6.77;62.62;100051.25;5045315;27;114336;-68
2021/11/03 04:45:42;;;;;;;7.55;5.07;;;;;;;6.79;62.79;100067.84;5040099;27;113310;-68
2021/11/03 04:48:10;;;;;;;7.93;4.95;;;;;;;6.81;62.54;100063.34;5039199;27;123620;-68
2021/11/03 04:50:37;;;;;;;8.18;5.25;;;;;;;6.83;62.51;100056.25;5037825;27;125569;-68
2021/11/03 04:53:05;;;;;;;10.52;5.40;;;;;;;6.87;62.83;100056.97;5048965;27;114050;-68
2021/11/03 04:55:36;;;;;;;14.32;5.43;;;;;;;6.88;62.27;100047.31;5043791;27;113688;-68
2021/11/03 04:58:04;;;;;;;9.45;5.32;;;;;;;6.85;62.49;100052.72;5054257;27;123207;-67
2021/11/03 05:00:33;;;;;;;8.32;5.07;;;;;;;6.81;62.58;100052.81;5038556;27;122949;-68
2021/11/03 05:03:03;;;;;;;8.35;5.38;;;;;;;6.80;62.71;100045.88;5040659;27;116443;-68
2021/11/03 05:05:31;;;;;;;12.77;5.57;;;;;;;6.81;62.61;100051.97;5046294;27;114206;-68
2021/11/03 05:07:58;;;;;;;8.52;5.45;;;;;;;6.82;62.72;100054.56;5040177;27;124381;-68
2021/11/03 05:10:27;;;;;;;7.85;5.20;;;;;;;6.83;62.55;100058.88;5037275;27;123052;-68
2021/11/03 05:12:56;;;;;;;7.35;5.03;;;;;;;6.86;62.88;100059.69;5041063;27;113517;-67
2021/11/03 05:15:24;;;;;;;8.57;5.45;;;;;;;6.90;62.59;100066.53;5039454;27;113945;-68
2021/11/03 05:17:52;;;;;;;9.77;5.43;;;;;;;6.92;62.95;100072.59;5040559;27;123356;-68
2021/11/03 05:20:20;;;;;;;10.35;5.63;;;;;;;6.95;62.61;100075.06;5062454;27;122369;-68
2021/11/03 05:22:49;;;;;;;15.13;5.38;;;;;;;6.98;62.85;100069.69;5044847;27;113873;-67
2021/11/03 05:25:19;;;;;;;13.02;5.57;;;;;;;7.00;62.83;100078.38;5042345;27;113844;-67
2021/11/03 05:27:47;;;;;;;10.18;5.55;;;;;;;7.00;62.55;100078.38;5044061;27;124377;-68
2021/11/03 05:30:15;;;;;;;10.77;5.45;;;;;;;7.00;62.60;100078.38;5037260;27;124059;-68
2021/11/03 05:32:43;;;;;;;9.32;5.78;;;;;;;6.99;62.57;100071.41;5043428;27;114792;-68
2021/11/03 05:35:10;;;;;;;13.45;5.82;;;;;;;6.98;62.73;100070.53;5043091;27;114626;-67
2021/11/03 05:37:38;;;;;;;8.52;5.32;;;;;;;6.98;62.96;100061.78;5043218;27;124009;-68
2021/11/03 05:40:11;;;;;;;11.27;5.80;;;;;;;6.98;62.48;100059.16;5040995;27;123928;-67
2021/11/03 05:42:38;;;;;;;9.52;5.65;;;;;;;6.98;62.51;100053.91;5040540;27;117347;-68
2021/11/03 05:45:06;;;;;;;7.78;5.15;;;;;;;6.99;62.90;100055.63;5045310;27;113991;-67
2021/11/03 05:47:33;;;;;;;9.45;6.10;;;;;;;7.01;62.75;100053.78;5039350;27;124468;-67
2021/11/03 05:50:03;;;;;;;9.00;6.10;;;;;;;7.03;62.74;100062.47;5042493;27;123712;-67
2021/11/03 05:52:30;;;;;;;8.85;5.88;;;;;;;7.04;62.87;100051.00;5042726;27;114172;-68
2021/11/03 05:54:58;;;;;;;9.48;5.55;;;;;;;7.06;62.97;100051.78;5035648;27;114786;-68
2021/11/03 05:57:29;;;;;;;8.50;5.47;;;;;;;7.08;62.82;100055.19;5038063;27;124375;-68
2021/11/03 05:59:57;;;;;;;10.05;5.43;;;;;;;7.11;62.85;100049.81;5042577;27;124422;-68
2021/11/03 06:02:24;;;;;;;9.18;5.70;;;;;;;7.12;62.64;100050.66;5041267;27;115185;-68
2021/11/03 06:04:52;;;;;;;9.07;5.57;;;;;;;7.11;62.47;100044.53;5041022;27;113771;-67
2021/11/03 06:07:22;;;;;;;7.50;5.28;;;;;;;7.09;62.74;100041.13;5034533;27;124814;-67
2021/11/03 06:09:53;;;;;;;9.52;5.65;;;;;;;7.09;62.92;100046.38;5037756;27;124078;-67
2021/11/03 06:12:21;;;;;;;9.00;5.75;;;;;;;7.10;62.98;100047.22;5036054;27;114581;-67
2021/11/03 06:14:48;;;;;;;8.70;5.30;;;;;;;7.13;62.88;100047.97;5037182;27;114079;-67
2021/11/03 06:17:15;;;;;;;6.78;4.55;;;;;;;7.16;62.95;100047.00;5040145;27;123830;-67
2021/11/03 06:19:42;;;;;;;7.30;4.93;;;;;;;7.16;62.56;100047.84;5043386;27;124589;-67
2021/11/03 06:22:09;;;;;;;8.90;5.80;;;;;;;7.17;62.74;100038.16;5051012;27;113630;-67
2021/11/03 06:24:38;;;;;;;9.05;5.68;;;;;;;7.17;62.85;100049.53;5046718;27;114082;-67
2021/11/03 06:27:09;;;;;;;8.55;5.47;;;;;;;7.19;62.85;100039.78;5041892;27;124593;-68
2021/11/03 06:29:37;;;;;;;8.25;5.43;;;;;;;7.20;62.86;100044.13;5045784;27;124483;-68
2021/11/03 06:32:04;;;;;;;8.77;5.55;;;;;;;7.20;62.60;100036.25;5042188;27;114495;-69
2021/11/03 06:34:31;;;;;;;8.00;5.70;;;;;;;7.21;62.71;100040.59;5043410;27;113532;-69
2021/11/03 06:36:58;;;;;;;8.98;5.82;;;;;;;7.22;63.01;100042.28;5053216;27;122818;-69
2021/11/03 06:39:25;;;;;;;8.90;5.82;;;;;;;7.22;62.60;100042.28;5049330;27;124153;-69
2021/11/03 06:41:54;;;;;;;9.10;5.50;;;;;;;7.25;62.61;100043.06;5041282;27;116160;-70
2021/11/03 06:44:21;;;;;;;8.48;5.55;;;;;;;7.25;62.40;100045.72;5042209;27;115213;-69
2021/11/03 06:46:48;;;;;;;8.35;5.65;;;;;;;7.24;62.58;100049.28;5046852;27;123775;-69
2021/11/03 06:49:16;;;;;;;10.13;5.63;;;;;;;7.25;62.46;100053.59;5040221;27;123950;-68
2021/11/03 06:51:43;;;;;;;9.45;5.88;;;;;;;7.25;62.48;100056.25;5042201;27;114589;-68
2021/11/03 06:54:11;;;;;;;9.23;5.53;;;;;;;7.26;62.46;100063.25;5040953;27;113720;-68
2021/11/03 06:56:39;;;;;;;9.25;5.85;;;;;;;7.26;62.44;100057.97;5046893;27;123264;-70
2021/11/03 06:59:07;;;;;;;9.23;5.70;;;;;;;7.27;62.75;100051.75;5036876;27;123899;-69
2021/11/03 07:01:35;;;;;;;8.15;5.75;;;;;;;7.27;62.67;100049.13;5042407;27;114312;-69
2021/11/03 07:04:03;;;;;;;9.52;5.78;;;;;;;7.28;62.55;100056.13;5041740;27;114438;-67
2021/11/03 07:06:31;;;;;;;9.02;5.80;;;;;;;7.29;62.74;100063.97;5039629;27;124237;-67
2021/11/03 07:08:58;;;;;;;8.90;5.60;;;;;;;7.29;62.23;100057.81;5041433;27;124685;-67
2021/11/03 07:11:28;;;;;;;10.35;6.60;;;;;;;7.32;62.84;100057.69;5041164;27;113874;-67
2021/11/03 07:13:56;;;;;;;10.48;6.35;;;;;;;7.33;62.71;100051.50;5047582;27;113170;-69
2021/11/03 07:16:25;;;;;;;9.48;5.90;;;;;;;7.34;62.72;100053.22;5049495;27;123820;-68
2021/11/03 07:18:52;;;;;;;9.98;6.40;;;;;;;7.37;62.84;100051.28;5047866;27;123252;-67
2021/11/03 07:21:20;;;;;;;8.50;5.82;;;;;;;7.41;62.72;100062.56;5053910;27;114144;-67
2021/11/03 07:23:47;;;;;;;10.25;6.72;;;;;;;7.43;62.64;100065.97;5054091;27;114280;-67
2021/11/03 07:26:14;;;;;;;9.55;6.07;;;;;;;7.45;63.05;100061.50;5050327;27;124265;-68
2021/11/03 07:28:42;;;;;;;10.93;6.68;;;;;;;7.48;62.71;100058.72;5052248;27;123907;-68
2021/11/03 07:31:10;;;;;;;9.23;6.00;;;;;;;7.48;62.79;100057.84;5043324;27;114361;-67
2021/11/03 07:33:41;;;;;;;9.73;6.22;;;;;;;7.47;62.89;100051.72;5044022;27;114973;-67
2021/11/03 07:36:12;;;;;;;9.75;6.18;;;;;;;7.48;62.88;100056.09;5041570;27;123220;-68
2021/11/03 07:38:40;;;;;;;9.07;6.28;;;;;;;7.51;63.01;100055.94;5047250;27;123776;-67
2021/11/03 07:41:27;;;;;;;9.32;6.20;;;;;;;7.55;63.21;100054.03;5034840;27;113509;-67
2021/11/03 07:43:57;;;;;;;11.02;6.72;;;;;;;7.58;63.36;100049.47;5037449;27;113939;-68
2021/11/03 07:46:25;;;;;;;9.13;6.30;;;;;;;7.63;63.08;100045.75;5034240;27;123280;-69
2021/11/03 07:48:52;;;;;;;12.15;7.15;;;;;;;7.67;62.90;100036.81;5040665;27;124283;-68
2021/11/03 07:51:20;;;;;;;15.07;8.05;;;;;;;7.70;63.04;100041.94;5039996;27;114477;-68
2021/11/03 07:53:49;;;;;;;13.40;7.60;;;;;;;7.72;63.02;100037.44;5047389;27;113085;-68
2021/11/03 07:56:22;;;;;;;10.93;7.20;;;;;;;7.78;62.88;100039.81;5048172;27;124928;-68
2021/11/03 07:58:51;;;;;;;13.45;7.15;;;;;;;7.82;63.38;100046.66;5053317;27;123643;-68
2021/11/03 08:01:21;;;;;;;11.82;7.53;;;;;;;7.87;63.43;100049.91;5042399;27;114173;-68
2021/11/03 08:03:50;;;;;;;14.43;8.00;;;;;;;7.92;63.21;100042.63;5047136;27;114244;-68
2021/11/03 08:06:18;;;;;;;13.13;7.85;;;;;;;7.97;63.39;100051.19;5041923;27;124103;-67
2021/11/03 08:08:57;;;;;;;12.57;7.75;;;;;;;8.04;63.26;100050.91;5047948;27;123855;-68
2021/11/03 08:11:27;;;;;;;12.15;7.70;;;;;;;8.10;63.46;100055.88;5041540;27;114562;-68
2021/11/03 08:13:56;;;;;;;14.70;7.82;;;;;;;8.16;63.29;100045.06;5045291;27;113434;-68
2021/11/03 08:16:23;;;;;;;11.23;6.95;;;;;;;8.22;63.48;100055.31;5052090;27;123858;-68
2021/11/03 08:18:50;;;;;;;12.30;7.28;;;;;;;8.26;63.18;100050.75;5046056;27;123956;-68
2021/11/03 08:21:18;;;;;;;12.95;7.07;;;;;;;8.30;63.02;100047.88;5052199;27;115053;-68
2021/11/03 08:23:45;;;;;;;11.60;6.88;;;;;;;8.32;63.36;100046.00;5048596;27;114760;-68
2021/11/03 08:26:12;;;;;;;11.48;6.93;;;;;;;8.35;63.00;100040.59;5051830;27;124616;-68
2021/11/03 08:28:39;;;;;;;12.05;7.38;;;;;;;8.41;63.43;100049.13;5054773;27;123216;-68
2021/11/03 08:31:08;;;;;;;11.80;6.97;;;;;;;8.45;63.25;100045.44;5051759;27;114409;-68
2021/11/03 08:33:42;;;;;;;13.07;6.95;;;;;;;8.49;63.36;100041.72;5051929;27;113999;-68
2021/11/03 08:36:10;;;;;;;11.05;6.90;;;;;;;8.53;63.32;100049.44;5053766;27;124170;-67
2021/11/03 08:38:53;;;;;;;13.35;7.40;;;;;;;8.59;63.40;100050.91;5054128;27;124155;-68
2021/11/03 08:41:21;;;;;;;12.45;7.43;;;;;;;8.63;63.52;100049.81;5052160;27;114389;-68
2021/11/03 08:43:48;;;;;;;14.32;7.43;;;;;;;8.67;63.40;100056.66;5051650;27;113883;-68
2021/11/03 08:46:16;;;;;;;13.23;7.50;;;;;;;8.71;63.37;100052.94;5032827;27;123947;-68
2021/11/03 08:48:56;;;;;;;12.95;7.65;;;;;;;8.76;63.36;100060.63;5039000;27;123680;-68
2021/11/03 08:51:27;;;;;;;12.68;7.15;;;;;;;8.80;63.17;100061.31;5047245;27;114399;-68
2021/11/03 08:53:55;;;;;;;14.45;7.75;;;;;;;8.84;63.16;100062.88;5033953;27;113837;-71
2021/11/03 08:56:24;;;;;;;10.52;7.20;;;;;;;8.88;63.63;100069.72;5034821;27;124490;-68
2021/11/03 08:58:51;;;;;;;12.70;7.47;;;;;;;8.92;63.28;100066.81;5039776;27;123757;-68
2021/11/03 09:01:21;;;;;;;12.02;7.35;;;;;;;8.96;63.44;100073.66;5054010;27;96803;-69
2021/11/03 09:03:52;;;;;;;12.05;7.90;;;;;;;9.00;63.19;100071.72;5046077;27;113794;-68
2021/11/03 09:06:19;;;;;;;15.45;7.50;;;;;;;9.04;63.40;100072.41;5045208;27;124373;-68
2021/11/03 09:08:49;;;;;;;12.52;7.50;;;;;;;9.08;63.39;100077.47;5052414;27;122964;-69
2021/11/03 09:11:18;;;;;;;14.35;8.02;;;;;;;9.14;63.50;100086.88;5041414;27;115626;-68
2021/11/03 09:13:46;;;;;;;12.30;7.40;;;;;;;9.18;63.25;100077.00;5036192;27;114968;-68
2021/11/03 09:16:16;;;;;;;12.43;8.02;;;;;;;9.24;63.29;100087.25;5039870;27;124078;-68
2021/11/03 09:18:44;;;;;;;12.35;7.38;;;;;;;9.29;63.52;100093.16;5033354;27;124677;-71
2021/11/03 09:21:12;;;;;;;12.00;7.75;;;;;;;9.32;63.02;100092.97;5032658;27;115202;-68
2021/11/03 09:23:42;;;;;;;14.88;7.90;;;;;;;9.37;63.58;100088.31;5034378;27;113911;-69
2021/11/03 09:26:09;;;;;;;13.25;7.68;;;;;;;9.40;63.34;100098.75;5039341;27;123939;-68
2021/11/03 09:28:37;;;;;;;12.02;7.75;;;;;;;9.44;63.30;100094.16;5053525;27;123891;-68
2021/11/03 09:31:06;;;;;;;13.60;7.75;;;;;;;9.45;63.07;100101.97;5050493;27;114253;-68
2021/11/03 09:33:35;;;;;;;13.52;8.20;;;;;;;9.46;63.09;100103.69;5038429;27;114312;-68
2021/11/03 09:36:04;;;;;;;12.85;7.80;;;;;;;9.47;63.19;100100.09;5035344;27;122882;-68
2021/11/03 09:38:35;;;;;;;13.80;7.82;;;;;;;9.50;63.12;100109.69;5045689;27;123820;-68
2021/11/03 09:41:02;;;;;;;12.60;8.30;;;;;;;9.53;63.34;100105.09;5051925;27;114137;-68
2021/11/03 09:43:38;;;;;;;12.95;7.45;;;;;;;9.58;63.46;100101.34;5050001;27;113927;-68
2021/11/03 09:46:24;;;;;;;11.68;7.32;;;;;;;9.63;63.59;100099.31;5037182;27;123933;-68
2021/11/03 09:48:58;;;;;;;12.43;7.57;;;;;;;9.69;63.58;100099.00;5041086;27;123791;-68
2021/11/03 09:51:28;;;;;;;14.85;7.88;;;;;;;9.76;63.62;100100.38;5048678;27;114580;-68
2021/11/03 09:53:58;;;;;;;11.93;7.72;;;;;;;9.81;63.29;100098.31;5051201;27;114132;-68
2021/11/03 09:56:43;;;;;;;14.25;8.45;;;;;;;9.85;63.45;100089.31;5037325;27;124633;-68
2021/11/03 09:59:46;;;;;;;14.63;8.70;;;;;;;9.88;63.15;100091.75;5052356;27;123878;-68
2021/11/03 10:02:38;;;;;;;14.43;7.93;;;;;;;9.92;63.52;100095.09;5032527;27;114964;-67
2021/11/03 10:05:20;;;;;;;11.50;7.35;;;;;;;9.97;63.53;100092.22;5034207;27;114956;-67
2021/11/03 10:08:01;;;;;;;14.95;8.15;;;;;;;10.00;63.67;100092.91;5033779;27;124313;-68
2021/11/03 10:10:38;;;;;;;14.30;8.02;;;;;;;10.02;63.16;100091.03;5048159;27;126849;-68
2021/11/03 10:13:37;;;;;;;16.13;7.70;;;;;;;10.05;63.62;100084.69;5043866;27;114250;-68
2021/11/03 10:16:23;;;;;;;13.25;7.50;;;;;;;10.12;63.68;100091.38;5042093;27;114021;-67
2021/11/03 10:19:05;;;;;;;14.57;7.88;;;;;;;10.17;63.55;100094.63;5046155;27;124118;-67
2021/11/03 10:21:38;;;;;;;15.68;7.78;;;;;;;10.22;63.22;100097.84;5031640;27;124233;-67
2021/11/03 10:24:11;;;;;;;14.02;7.70;;;;;;;10.28;63.69;100081.66;5034499;27;113529;-67
2021/11/03 10:26:58;;;;;;;14.30;8.35;;;;;;;10.35;63.43;100086.63;5043429;27;114295;-67
2021/11/03 10:29:30;;;;;;;13.15;7.97;;;;;;;10.41;63.64;100092.41;5037398;27;124524;-67
2021/11/03 10:32:21;;;;;;;13.50;7.80;;;;;;;10.48;63.39;100090.28;5041314;27;122595;-67
2021/11/03 10:34:59;;;;;;;12.02;7.75;;;;;;;10.54;63.45;100087.28;5042029;27;113005;-67
2021/11/03 10:37:40;;;;;;;11.60;7.57;;;;;;;10.62;63.67;100087.69;5045104;27;113814;-68
2021/11/03 10:40:27;;;;;;;14.80;8.15;;;;;;;10.68;63.36;100084.69;5029040;27;124090;-67
2021/11/03 10:42:56;;;;;;;13.75;8.05;;;;;;;10.75;63.42;100089.63;5048572;27;122717;-68
2021/11/03 10:45:37;;;;;;;14.57;8.10;;;;;;;10.78;63.50;100090.31;5029665;27;114623;-67
2021/11/03 10:48:07;;;;;;;14.10;8.20;;;;;;;10.85;63.53;100080.19;5038989;27;113914;-67
2021/11/03 10:50:53;;;;;;;15.65;8.15;;;;;;;10.90;63.41;100078.13;5050509;27;124037;-68
2021/11/03 10:53:45;;;;;;;15.23;8.60;;;;;;;10.94;63.59;100077.00;5047495;27;122720;-67
2021/11/03 10:56:23;;;;;;;13.13;7.55;;;;;;;10.99;63.38;100077.59;5044000;27;115250;-67
2021/11/03 10:58:50;;;;;;;19.08;9.18;;;;;;;11.03;63.23;100071.16;5032126;27;114894;-67
2021/11/03 11:01:23;;;;;;;14.57;8.73;;;;;;;11.09;63.42;100073.47;5044326;27;125022;-68
2021/11/03 11:04:15;;;;;;;13.20;8.25;;;;;;;11.15;63.42;100081.97;5030892;27;123649;-67
2021/11/03 11:06:48;;;;;;;17.17;9.27;;;;;;;11.18;63.27;100071.22;5033114;27;114336;-67
2021/11/03 11:09:24;;;;;;;15.27;9.18;;;;;;;11.20;63.33;100074.63;5037817;27;113789;-68
2021/11/03 11:11:57;;;;;;;16.92;9.25;;;;;;;11.23;63.52;100069.13;5048620;27;124082;-67
2021/11/03 11:14:28;;;;;;;16.55;9.73;;;;;;;11.27;63.38;100070.66;5034794;27;124653;-67
2021/11/03 11:16:58;;;;;;;16.52;10.05;;;;;;;11.32;63.73;100073.88;5052194;27;113189;-67
2021/11/03 11:19:42;;;;;;;15.23;10.05;;;;;;;11.36;63.35;100072.75;5053759;27;114007;-67
2021/11/03 11:22:37;;;;;;;17.25;9.30;;;;;;;11.37;63.02;100077.09;5037932;27;124031;-67
2021/11/03 11:25:13;;;;;;;15.30;8.90;;;;;;;11.38;63.12;100078.81;5036401;27;124527;-67
2021/11/03 11:27:59;;;;;;;15.55;8.55;;;;;;;11.41;63.30;100083.91;5040666;27;113685;-67
2021/11/03 11:30:34;;;;;;;;;;;;;;;11.41;63.21;100068.00;5041447;27;114139;-69
2021/11/03 11:33:05;;;;;;;15.73;8.18;;;;;;;11.46;63.31;100071.22;5058725;27;123096;-67
2021/11/03 11:35:49;;;;;;;15.80;8.77;;;;;;;11.51;63.13;100076.28;5041972;27;123806;-68
2021/11/03 11:38:35;;;;;;;15.98;9.25;;;;;;;11.55;63.26;100072.47;5049878;27;114248;-67